Time;durP1;ratioP1;P1;durP2;ratioP2;P2;SDS_P1;SDS_P2;PMS_P1;PMS_P2;Temp;Humidity;BMP_temperature;BMP_pressure;BME280_temperature;BME280_humidity;BME280_pressure;Samples;Min_cycle;Max_cycle;Signal;HPM_P1;HPM_P2
2023/10/15 00:00:18;;;;;;;10.90;2.97;;;;;;;8.54;90.40;99537.75;4218604;28;20702;-70
2023/10/15 00:02:46;;;;;;;14.47;2.70;;;;;;;8.56;90.79;99533.91;4231654;28;20239;-70
2023/10/15 00:05:20;;;;;;;19.93;3.07;;;;;;;8.59;90.51;99534.59;4218939;28;20601;-71
2023/10/15 00:07:49;;;;;;;13.83;3.10;;;;;;;8.48;91.29;99546.47;4215324;28;20904;-70
2023/10/15 00:10:21;;;;;;;11.13;3.40;;;;;;;8.41;91.95;99540.84;4223046;28;21492;-70
2023/10/15 00:12:52;;;;;;;14.80;3.10;;;;;;;8.47;91.59;99542.06;4218267;28;20234;-70
2023/10/15 00:15:20;;;;;;;10.10;2.63;;;;;;;8.35;91.82;99545.00;4215395;28;22544;-69
2023/10/15 00:17:48;;;;;;;13.43;3.30;;;;;;;8.28;91.95;99543.06;4224053;28;20342;-68
2023/10/15 00:20:17;;;;;;;11.80;2.80;;;;;;;8.31;91.55;99546.28;4225343;28;20938;-69
2023/10/15 00:22:45;;;;;;;12.37;3.20;;;;;;;8.21;91.58;99546.38;4216333;28;21446;-68
2023/10/15 00:25:14;;;;;;;11.83;2.87;;;;;;;8.16;91.35;99555.91;4215785;28;20235;-68
2023/10/15 00:27:42;;;;;;;14.57;3.20;;;;;;;8.15;91.18;99549.69;4225981;28;23537;-68
2023/10/15 00:30:19;;;;;;;14.70;3.47;;;;;;;8.14;90.86;99549.84;4204686;28;20309;-70
2023/10/15 00:32:47;;;;;;;13.60;3.27;;;;;;;8.06;90.89;99551.47;4215589;28;20232;-73
2023/10/15 00:35:19;;;;;;;9.73;3.07;;;;;;;8.00;90.77;99551.22;4235663;28;22469;-70
2023/10/15 00:37:54;;;;;;;14.60;3.07;;;;;;;7.97;91.14;99563.16;4200227;28;22439;-69
2023/10/15 00:40:23;;;;;;;7.13;2.50;;;;;;;7.99;90.44;99558.47;4207572;28;20261;-70
2023/10/15 00:42:51;;;;;;;13.80;2.90;;;;;;;7.92;90.04;99558.22;4224522;28;20562;-68
2023/10/15 00:45:19;;;;;;;10.40;2.40;;;;;;;7.78;90.61;99556.88;4219208;28;20678;-71
2023/10/15 00:48:07;;;;;;;11.87;2.30;;;;;;;7.77;90.58;99557.91;4205037;28;20352;-69
2023/10/15 00:50:40;;;;;;;8.67;2.30;;;;;;;7.67;90.50;99561.63;4223255;28;20458;-69
2023/10/15 00:53:21;;;;;;;8.97;2.40;;;;;;;7.59;90.81;99563.22;4209331;28;21775;-69
2023/10/15 00:55:50;;;;;;;12.63;2.20;;;;;;;7.57;90.99;99567.94;4224070;28;20471;-69
2023/10/15 00:58:38;;;;;;;7.87;2.27;;;;;;;7.54;91.07;99570.91;4215518;28;21944;-68
2023/10/15 01:01:51;;;;;;;8.53;2.73;;;;;;;7.48;90.86;99562.59;4222570;28;21763;-68
2023/10/15 01:03:59;;;;;;;12.03;2.00;;;;;;;7.39;91.09;99565.19;4216349;28;21998;-68
2023/10/15 01:09:19;;;;;;;14.60;2.17;;;;;;;7.29;91.08;99565.22;4237510;28;20235;-69
2023/10/15 01:11:56;;;;;;;8.07;2.10;;;;;;;7.39;91.09;99569.72;4220877;28;20380;-69
2023/10/15 01:14:38;;;;;;;11.87;2.27;;;;;;;7.32;91.21;99574.00;4212586;28;20385;-68
2023/10/15 01:17:05;;;;;;;15.73;2.90;;;;;;;7.19;91.43;99569.81;4215613;28;20228;-71
2023/10/15 01:19:34;;;;;;;14.47;2.57;;;;;;;7.11;91.79;99573.22;4225626;28;20233;-70
2023/10/15 01:22:03;;;;;;;12.63;2.40;;;;;;;7.11;91.47;99573.22;4224771;28;20251;-69
2023/10/15 01:24:33;;;;;;;12.33;2.40;;;;;;;7.10;91.68;99579.59;4215226;28;20333;-68
2023/10/15 01:29:35;;;;;;;12.87;2.70;;;;;;;7.00;92.13;99575.22;4229129;28;20441;-69
2023/10/15 01:32:13;;;;;;;9.20;2.30;;;;;;;7.16;91.23;99580.00;4212396;28;20301;-70
2023/10/15 01:34:48;;;;;;;14.70;3.10;;;;;;;7.28;90.46;99581.53;4217340;28;20303;-68
2023/10/15 01:40:37;;;;;;;8.47;2.30;;;;;;;7.18;91.30;99578.00;4206560;28;22738;-69
2023/10/15 01:42:46;;;;;;;10.07;2.50;;;;;;;7.04;92.44;99568.56;4222080;28;20324;-69
2023/10/15 01:45:15;;;;;;;11.03;2.73;;;;;;;7.05;92.33;99567.59;4214210;28;21872;-69
2023/10/15 01:48:04;;;;;;;9.97;2.67;;;;;;;7.04;92.56;99574.78;4223170;28;20235;-69
2023/10/15 01:50:44;;;;;;;9.20;2.33;;;;;;;7.11;92.33;99572.38;4216202;28;20887;-68
2023/10/15 01:53:11;;;;;;;19.93;3.03;;;;;;;7.11;92.31;99581.28;4205213;28;20304;-69
2023/10/15 01:55:52;;;;;;;13.57;2.40;;;;;;;7.03;92.49;99572.25;4221487;28;21101;-69
2023/10/15 01:58:24;;;;;;;8.37;2.17;;;;;;;7.02;92.85;99578.63;4214178;28;20235;-70
2023/10/15 02:00:51;;;;;;;12.80;2.43;;;;;;;6.95;92.84;99578.34;4212061;28;20245;-68
2023/10/15 02:03:18;;;;;;;12.20;2.20;;;;;;;6.97;93.00;99576.38;4223702;28;20247;-69
2023/10/15 02:05:45;;;;;;;17.03;1.87;;;;;;;6.93;93.03;99574.97;4215415;28;20242;-68
2023/10/15 02:08:25;;;;;;;8.70;2.03;;;;;;;6.84;93.18;99573.97;4218798;28;23171;-69
2023/10/15 02:10:52;;;;;;;7.17;2.03;;;;;;;6.79;93.73;99576.25;4219885;28;20293;-68
2023/10/15 02:13:26;;;;;;;11.77;1.87;;;;;;;6.81;93.79;99580.50;4224281;28;23224;-70
2023/10/15 02:15:55;;;;;;;7.47;2.03;;;;;;;6.72;94.04;99569.75;4211749;28;20676;-68
2023/10/15 02:18:23;;;;;;;9.07;1.77;;;;;;;6.72;94.47;99580.53;4223371;28;20290;-69
2023/10/15 02:23:20;;;;;;;10.23;2.27;;;;;;;6.64;94.45;99579.41;4222512;28;20237;-70
2023/10/15 02:25:56;;;;;;;7.70;1.60;;;;;;;6.58;94.79;99579.97;4209129;28;20244;-70
2023/10/15 02:28:26;;;;;;;9.70;1.67;;;;;;;6.53;94.76;99584.94;4212976;28;20230;-69
2023/10/15 02:31:10;;;;;;;8.70;2.23;;;;;;;6.51;94.90;99581.53;4213681;28;20243;-69
2023/10/15 02:33:38;;;;;;;9.70;2.20;;;;;;;6.48;95.16;99589.88;4221379;28;20265;-68
2023/10/15 02:36:09;;;;;;;12.47;2.30;;;;;;;6.42;95.19;99577.84;4231529;28;20397;-68
2023/10/15 02:38:52;;;;;;;8.97;2.07;;;;;;;6.49;95.06;99589.75;4216429;28;20248;-68
2023/10/15 02:41:30;;;;;;;11.10;2.00;;;;;;;6.46;95.11;99598.09;4212953;28;20305;-68
2023/10/15 02:43:57;;;;;;;13.50;2.40;;;;;;;6.44;95.05;99586.63;4214070;28;20366;-68
2023/10/15 02:46:36;;;;;;;12.10;1.83;;;;;;;6.40;95.31;99581.66;4214503;28;20670;-68
2023/10/15 02:49:06;;;;;;;12.17;2.23;;;;;;;6.33;95.39;99579.56;4214237;28;23634;-69
2023/10/15 02:51:35;;;;;;;12.73;2.27;;;;;;;6.32;95.40;99588.59;4223526;28;21136;-68
2023/10/15 02:54:09;;;;;;;12.80;2.10;;;;;;;6.29;95.47;99578.16;4223987;28;20235;-71
2023/10/15 02:56:36;;;;;;;6.10;1.77;;;;;;;6.28;95.31;99583.66;4214276;28;21118;-68
2023/10/15 02:59:03;;;;;;;12.37;2.20;;;;;;;6.22;95.27;99577.03;4217613;28;20609;-68
2023/10/15 03:01:30;;;;;;;9.53;2.00;;;;;;;6.27;95.11;99573.91;4213066;28;20232;-71
2023/10/15 03:04:07;;;;;;;9.97;1.90;;;;;;;6.21;95.31;99583.38;4211970;28;20261;-68
2023/10/15 03:06:34;;;;;;;7.63;2.10;;;;;;;6.17;95.27;99574.75;4216773;28;21760;-68
2023/10/15 03:09:11;;;;;;;10.50;2.00;;;;;;;6.14;95.43;99580.41;4212678;28;21806;-68
2023/10/15 03:11:38;;;;;;;12.43;2.37;;;;;;;6.11;95.62;99575.31;4216331;28;21404;-68
2023/10/15 03:14:06;;;;;;;8.57;2.00;;;;;;;6.13;95.42;99584.06;4210096;28;21673;-69
2023/10/15 03:16:34;;;;;;;8.93;2.40;;;;;;;6.08;95.70;99586.34;4219908;28;20240;-70
2023/10/15 03:19:09;;;;;;;7.97;2.07;;;;;;;6.10;95.70;99583.50;4223804;28;20235;-68
2023/10/15 03:21:39;;;;;;;11.43;2.30;;;;;;;6.06;95.96;99591.00;4207507;28;20282;-70
2023/10/15 03:24:06;;;;;;;14.60;2.27;;;;;;;6.01;96.27;99591.41;4214376;28;20677;-70
2023/10/15 03:26:34;;;;;;;7.67;1.70;;;;;;;5.95;96.61;99589.25;4218460;28;20232;-69
2023/10/15 03:29:07;;;;;;;11.37;2.20;;;;;;;5.90;96.81;99586.13;4218775;28;20236;-68
2023/10/15 03:31:36;;;;;;;10.37;2.10;;;;;;;5.89;96.76;99581.75;4221018;28;20410;-69
2023/10/15 03:36:50;;;;;;;11.33;2.43;;;;;;;5.81;97.36;99584.28;4213212;28;20224;-70
2023/10/15 03:40:12;;;;;;;9.80;1.83;;;;;;;5.79;97.32;99592.47;4212026;28;20269;-70
2023/10/15 03:42:17;;;;;;;9.07;2.13;;;;;;;5.80;97.41;99588.81;4203840;28;20240;-69
2023/10/15 03:44:47;;;;;;;10.93;2.00;;;;;;;5.71;98.03;99600.38;4205847;28;20300;-68
2023/10/15 03:47:16;;;;;;;10.20;2.40;;;;;;;5.72;97.91;99600.22;4209923;28;20372;-68
2023/10/15 03:49:46;;;;;;;13.93;2.37;;;;;;;5.68;98.31;99598.81;4220530;28;20291;-69
2023/10/15 03:52:20;;;;;;;15.20;2.40;;;;;;;5.73;97.56;99606.44;4207469;28;20248;-69
2023/10/15 03:54:48;;;;;;;15.17;2.60;;;;;;;5.71;97.98;99603.03;4198930;28;21295;-69
2023/10/15 03:57:22;;;;;;;9.73;2.70;;;;;;;5.72;97.76;99610.13;4212615;28;20254;-70
2023/10/15 03:59:52;;;;;;;11.73;2.50;;;;;;;5.76;97.74;99606.16;4214178;28;20348;-67
2023/10/15 04:02:29;;;;;;;9.67;2.40;;;;;;;5.77;97.36;99605.19;4212620;28;20236;-69
2023/10/15 04:05:00;;;;;;;9.50;2.43;;;;;;;5.82;97.20;99610.16;4234641;28;20247;-69
2023/10/15 04:07:38;;;;;;;8.63;2.67;;;;;;;5.85;96.95;99602.66;4207117;28;20258;-68
2023/10/15 04:10:07;;;;;;;14.20;3.03;;;;;;;5.83;96.95;99603.78;4214649;28;22998;-68
2023/10/15 04:12:35;;;;;;;12.80;3.03;;;;;;;5.85;96.87;99589.22;4214394;28;21881;-68
2023/10/15 04:15:12;;;;;;;14.40;2.97;;;;;;;5.84;96.82;99592.06;4222671;28;25492;-69
2023/10/15 04:17:39;;;;;;;12.27;3.47;;;;;;;5.83;96.92;99595.72;4227004;28;20587;-69
2023/10/15 04:20:06;;;;;;;18.33;3.63;;;;;;;5.85;96.88;99594.59;4212336;28;20852;-70
2023/10/15 04:22:36;;;;;;;9.83;2.80;;;;;;;5.85;96.71;99605.34;4219683;28;20681;-69
2023/10/15 04:25:06;;;;;;;13.43;3.33;;;;;;;5.87;96.63;99605.19;4210764;28;21030;-68
2023/10/15 04:27:34;;;;;;;20.93;3.13;;;;;;;5.83;96.77;99601.09;4219001;28;20227;-68
2023/10/15 04:30:01;;;;;;;15.33;2.50;;;;;;;5.81;96.72;99608.44;4208853;28;20423;-69
2023/10/15 04:35:01;;;;;;;11.67;2.50;;;;;;;5.85;96.44;99604.50;4215170;28;21186;-68
2023/10/15 04:37:29;;;;;;;15.90;2.40;;;;;;;5.82;96.41;99607.47;4212338;28;20299;-70
2023/10/15 04:39:58;;;;;;;11.10;2.10;;;;;;;5.87;96.61;99605.19;4227128;28;20601;-68
2023/10/15 04:42:51;;;;;;;13.33;2.80;;;;;;;5.89;96.21;99594.34;4203156;28;20373;-70
2023/10/15 04:48:02;;;;;;;11.80;2.20;;;;;;;5.89;95.85;99597.88;4210995;28;20236;-68
2023/10/15 04:50:32;;;;;;;12.90;1.97;;;;;;;5.86;95.79;99596.31;4214891;28;20275;-68
2023/10/15 04:53:23;;;;;;;8.00;1.70;;;;;;;5.86;96.14;99596.31;4204297;28;22494;-69
2023/10/15 04:55:52;;;;;;;16.33;2.33;;;;;;;5.92;95.84;99597.59;4218539;28;20609;-69
2023/10/15 04:58:20;;;;;;;10.47;2.50;;;;;;;5.97;95.38;99592.66;4206747;28;20236;-68
2023/10/15 05:00:48;;;;;;;16.03;2.50;;;;;;;5.93;95.76;99591.22;4211252;28;21776;-70
2023/10/15 05:03:15;;;;;;;22.33;2.33;;;;;;;5.93;95.95;99585.00;4217539;28;21667;-68
2023/10/15 05:05:43;;;;;;;11.33;2.10;;;;;;;5.93;96.04;99591.22;4208896;28;20255;-68
2023/10/15 05:08:13;;;;;;;13.83;2.20;;;;;;;5.92;96.02;99589.53;4202504;28;20314;-68
2023/10/15 05:10:50;;;;;;;10.20;2.50;;;;;;;5.95;96.05;99588.41;4210164;28;20228;-68
2023/10/15 05:13:18;;;;;;;8.97;2.37;;;;;;;5.98;95.75;99586.28;4207376;28;20262;-69
2023/10/15 05:15:46;;;;;;;9.97;2.07;;;;;;;6.03;95.77;99591.28;4199874;28;23398;-68
2023/10/15 05:18:15;;;;;;;9.27;2.20;;;;;;;6.05;95.37;99583.06;4219070;28;20232;-69
2023/10/15 05:20:43;;;;;;;10.63;2.37;;;;;;;6.08;95.39;99589.03;4219093;28;22452;-70
2023/10/15 05:23:10;;;;;;;6.90;1.90;;;;;;;6.07;95.38;99586.47;4217226;28;20246;-69
2023/10/15 05:25:39;;;;;;;11.60;2.53;;;;;;;6.05;95.45;99594.66;4233124;28;20307;-67
2023/10/15 05:28:07;;;;;;;9.43;1.90;;;;;;;6.04;95.48;99593.00;4226411;28;20244;-69
2023/10/15 05:30:34;;;;;;;15.40;2.43;;;;;;;6.04;95.65;99601.03;4242981;28;21589;-69
2023/10/15 05:33:01;;;;;;;8.93;1.97;;;;;;;6.04;95.79;99609.09;4218018;28;22304;-69
2023/10/15 05:35:29;;;;;;;11.67;2.53;;;;;;;6.06;95.66;99612.47;4229810;28;22470;-66
2023/10/15 05:37:56;;;;;;;9.93;2.37;;;;;;;6.08;95.51;99620.44;4238297;28;20291;-68
2023/10/15 05:40:22;;;;;;;11.13;2.40;;;;;;;6.11;95.45;99625.50;4227704;28;20316;-68
2023/10/15 05:42:49;;;;;;;8.73;2.00;;;;;;;6.13;95.39;99634.28;4238154;28;20259;-69
2023/10/15 05:45:17;;;;;;;11.07;2.20;;;;;;;6.21;95.13;99630.88;4229463;28;20274;-69
2023/10/15 05:47:44;;;;;;;11.63;2.27;;;;;;;6.19;95.31;99631.03;4213799;28;20243;-70
2023/10/15 05:50:16;;;;;;;14.07;2.30;;;;;;;6.19;95.39;99637.25;4230147;28;22262;-69
2023/10/15 05:52:43;;;;;;;13.23;2.47;;;;;;;6.26;94.91;99651.00;4226852;28;20232;-70
2023/10/15 05:55:11;;;;;;;15.07;2.53;;;;;;;6.26;94.99;99653.69;4217241;28;20233;-69
2023/10/15 05:57:38;;;;;;;17.20;2.50;;;;;;;6.34;95.03;99658.38;4223989;28;20310;-71
2023/10/15 06:00:17;;;;;;;10.50;2.20;;;;;;;6.33;94.82;99662.88;4231913;28;25763;-70
2023/10/15 06:02:46;;;;;;;10.03;2.23;;;;;;;6.38;94.55;99664.31;4218130;28;20315;-71
2023/10/15 06:05:16;;;;;;;10.57;2.53;;;;;;;6.43;94.52;99668.28;4219810;28;20308;-68
2023/10/15 06:07:46;;;;;;;11.87;2.60;;;;;;;6.47;94.76;99674.22;4243806;28;20264;-67
2023/10/15 06:10:12;;;;;;;9.90;2.27;;;;;;;6.53;93.84;99668.31;4232989;28;20667;-68
2023/10/15 06:12:41;;;;;;;16.17;2.83;;;;;;;6.56;93.93;99672.53;4209098;28;22669;-71
2023/10/15 06:15:14;;;;;;;10.43;2.70;;;;;;;6.60;93.43;99682.03;4243894;28;20282;-69
2023/10/15 06:17:46;;;;;;;14.63;2.83;;;;;;;6.62;93.56;99667.44;4270691;28;22139;-70
2023/10/15 06:20:14;;;;;;;11.23;2.37;;;;;;;6.73;93.10;99681.75;4255520;28;20690;-70
2023/10/15 06:22:42;;;;;;;12.33;2.43;;;;;;;6.80;92.58;99683.72;4257094;28;20235;-70
2023/10/15 06:25:09;;;;;;;11.03;2.30;;;;;;;6.82;92.09;99675.53;4305060;28;20280;-69
2023/10/15 06:27:36;;;;;;;14.10;2.93;;;;;;;6.86;92.12;99676.94;4250813;28;20425;-70
2023/10/15 06:30:14;;;;;;;10.97;2.27;;;;;;;6.97;91.73;99681.31;4247312;28;20626;-71
2023/10/15 06:32:43;;;;;;;11.73;2.30;;;;;;;6.89;91.82;99682.03;4224749;28;21153;-69
2023/10/15 06:35:14;;;;;;;12.77;2.57;;;;;;;6.91;91.20;99677.34;4223557;28;21713;-68
2023/10/15 06:37:41;;;;;;;8.70;2.17;;;;;;;6.98;91.45;99686.56;4206013;28;20236;-69
2023/10/15 06:40:08;;;;;;;13.10;2.20;;;;;;;7.04;90.54;99681.59;4213803;28;20266;-69
2023/10/15 06:42:48;;;;;;;13.77;2.50;;;;;;;7.11;90.23;99686.25;4222088;28;20365;-69
2023/10/15 06:45:19;;;;;;;5.37;1.73;;;;;;;7.06;90.57;99693.91;4235306;28;21257;-70
2023/10/15 06:47:47;;;;;;;14.83;2.37;;;;;;;7.12;90.28;99677.19;4221644;28;20778;-70
2023/10/15 06:50:14;;;;;;;11.37;2.13;;;;;;;7.10;89.73;99691.78;4212400;28;20245;-70
2023/10/15 06:52:42;;;;;;;10.93;2.10;;;;;;;7.11;89.29;99685.41;4205218;28;21887;-69
2023/10/15 06:55:13;;;;;;;14.63;2.87;;;;;;;7.18;89.21;99688.34;4222720;28;20310;-68
2023/10/15 06:57:41;;;;;;;12.00;1.90;;;;;;;7.30;88.51;99689.91;4236898;28;21850;-70
2023/10/15 07:00:21;;;;;;;9.53;2.27;;;;;;;7.32;88.12;99681.69;4210890;28;20284;-70
2023/10/15 07:02:49;;;;;;;13.43;2.43;;;;;;;7.30;88.26;99696.13;4223614;28;20340;-70
2023/10/15 07:05:17;;;;;;;9.03;2.40;;;;;;;7.44;87.82;99702.06;4220613;28;20278;-68
2023/10/15 07:07:45;;;;;;;15.70;2.47;;;;;;;7.39;87.81;99697.13;4250860;28;20495;-68
2023/10/15 07:10:15;;;;;;;10.43;1.87;;;;;;;7.55;87.15;99693.81;4220395;28;20243;-71
2023/10/15 07:12:47;;;;;;;8.50;1.80;;;;;;;7.67;86.46;99699.88;4239196;28;22006;-70
2023/10/15 07:15:16;;;;;;;13.73;2.73;;;;;;;7.70;86.68;99690.66;4217867;28;22227;-69
2023/10/15 07:17:44;;;;;;;9.63;2.03;;;;;;;7.70;85.65;99702.28;4216475;28;20297;-69
2023/10/15 07:20:18;;;;;;;15.50;2.17;;;;;;;7.70;85.05;99702.28;4226006;28;20444;-69
2023/10/15 07:22:48;;;;;;;10.10;1.97;;;;;;;7.78;84.95;99705.06;4223922;28;20315;-69
2023/10/15 07:25:17;;;;;;;16.17;2.30;;;;;;;7.85;84.55;99702.66;4234663;28;20243;-69
2023/10/15 07:27:48;;;;;;;12.53;2.63;;;;;;;7.95;83.65;99709.84;4258852;28;20281;-70
2023/10/15 07:30:19;;;;;;;12.43;2.73;;;;;;;8.17;83.26;99708.59;4234527;28;20236;-70
2023/10/15 07:32:47;;;;;;;12.30;2.17;;;;;;;8.63;79.98;99700.56;4246412;28;20372;-67
2023/10/15 07:35:15;;;;;;;8.20;1.57;;;;;;;8.91;79.17;99711.28;4254976;28;20374;-68
2023/10/15 07:37:45;;;;;;;10.80;1.90;;;;;;;9.61;76.36;99714.00;4260433;28;21771;-70
2023/10/15 07:40:17;;;;;;;8.20;1.83;;;;;;;9.16;77.05;99712.31;4246705;28;20356;-70
2023/10/15 07:42:48;;;;;;;9.60;2.47;;;;;;;8.54;78.01;99724.75;4274419;28;20510;-71
2023/10/15 07:45:16;;;;;;;12.33;2.03;;;;;;;8.29;78.55;99710.09;4275285;28;21210;-70
2023/10/15 07:47:44;;;;;;;10.77;1.80;;;;;;;8.55;77.47;99704.88;4256509;28;20247;-70
2023/10/15 07:50:23;;;;;;;12.67;2.30;;;;;;;8.54;76.90;99702.31;4223373;28;20235;-70
2023/10/15 07:52:51;;;;;;;14.83;1.87;;;;;;;8.33;76.90;99718.75;4235983;28;20568;-68
2023/10/15 07:55:19;;;;;;;12.63;1.97;;;;;;;8.25;77.57;99704.16;4246188;28;21120;-71
2023/10/15 07:57:46;;;;;;;11.73;2.23;;;;;;;8.23;76.51;99721.50;4220635;28;20680;-68
2023/10/15 08:00:22;;;;;;;10.50;1.80;;;;;;;8.24;75.27;99717.78;4231158;28;21642;-67
2023/10/15 08:02:57;;;;;;;9.30;1.63;;;;;;;9.67;69.35;99726.03;4299731;28;20286;-70
2023/10/15 08:05:26;;;;;;;9.90;1.90;;;;;;;9.65;69.67;99715.41;4325873;28;20267;-71
2023/10/15 08:07:56;;;;;;;8.87;1.50;;;;;;;11.41;64.18;99720.13;4286422;28;20235;-69
2023/10/15 08:10:24;;;;;;;8.20;1.80;;;;;;;11.71;62.88;99720.44;4363570;28;25498;-67
2023/10/15 08:12:52;;;;;;;10.67;1.93;;;;;;;11.46;63.01;99708.78;4362755;28;22221;-69
2023/10/15 08:15:20;;;;;;;9.23;1.57;;;;;;;12.21;60.34;99712.16;4354229;28;21296;-70
2023/10/15 08:17:47;;;;;;;11.13;1.70;;;;;;;11.35;61.65;99712.69;4343354;28;22162;-69
2023/10/15 08:20:14;;;;;;;8.40;2.23;;;;;;;11.53;61.42;99714.34;4291775;28;21200;-66
2023/10/15 08:22:41;;;;;;;6.27;1.50;;;;;;;11.46;61.80;99714.22;4254956;28;20270;-66
2023/10/15 08:25:18;;;;;;;10.23;1.83;;;;;;;11.18;61.37;99709.13;4314260;28;20236;-67
2023/10/15 08:27:45;;;;;;;12.47;2.00;;;;;;;12.07;58.92;99700.19;4227886;28;20232;-67
2023/10/15 08:30:13;;;;;;;9.53;1.70;;;;;;;10.97;61.51;99701.50;4214347;28;20226;-69
2023/10/15 08:32:45;;;;;;;5.13;1.23;;;;;;;10.47;63.42;99706.00;4256513;28;20271;-68
2023/10/15 08:35:16;;;;;;;9.23;1.87;;;;;;;11.50;60.46;99718.25;4347115;28;20234;-66
2023/10/15 08:37:44;;;;;;;6.43;1.30;;;;;;;12.15;56.67;99710.16;4280118;28;20675;-66
2023/10/15 08:40:17;;;;;;;5.80;1.47;;;;;;;11.95;58.17;99706.97;4276022;28;20250;-68
2023/10/15 08:42:56;;;;;;;7.03;1.57;;;;;;;11.26;60.03;99708.28;4235685;28;20541;-67
2023/10/15 08:45:23;;;;;;;7.40;2.00;;;;;;;11.17;60.77;99714.72;4275801;28;20790;-68
2023/10/15 08:47:52;;;;;;;7.37;1.57;;;;;;;10.70;62.41;99702.66;4276678;28;20390;-67
2023/10/15 08:50:20;;;;;;;7.67;1.67;;;;;;;10.12;65.34;99699.75;4263404;28;20242;-67
2023/10/15 08:52:49;;;;;;;11.93;1.90;;;;;;;10.32;64.71;99708.44;4248204;28;20228;-65
2023/10/15 08:55:17;;;;;;;8.27;1.70;;;;;;;10.02;63.39;99696.31;4275543;28;20237;-68
2023/10/15 08:57:44;;;;;;;6.57;1.43;;;;;;;9.95;65.50;99706.94;4285381;28;22378;-67
2023/10/15 09:00:25;;;;;;;5.80;1.53;;;;;;;9.78;66.03;99712.25;4223677;28;20662;-67
2023/10/15 09:03:02;;;;;;;8.27;1.73;;;;;;;9.73;66.81;99711.06;4222557;28;20286;-67
2023/10/15 09:05:40;;;;;;;7.97;1.80;;;;;;;9.83;66.36;99711.75;4229160;28;20304;-65
2023/10/15 09:08:08;;;;;;;6.80;1.50;;;;;;;9.51;66.33;99714.13;4232714;28;20645;-67
2023/10/15 09:10:41;;;;;;;48.33;22.27;;;;;;;9.31;67.73;99716.16;4231854;28;20238;-70
2023/10/15 09:13:15;;;;;;;6.93;1.30;;;;;;;8.93;68.35;99722.78;4255442;28;20230;-63
2023/10/15 09:15:45;;;;;;;62.77;31.63;;;;;;;9.11;69.34;99726.28;4219388;28;20231;-65
2023/10/15 09:18:15;;;;;;;8.63;1.43;;;;;;;9.18;68.53;99721.97;4224333;28;20364;-67
2023/10/15 09:20:51;;;;;;;11.10;1.60;;;;;;;8.95;69.09;99732.41;4221939;28;20289;-69
2023/10/15 09:23:22;;;;;;;10.37;1.60;;;;;;;8.96;68.86;99717.91;4218035;28;20749;-68
2023/10/15 09:25:53;;;;;;;9.90;1.80;;;;;;;8.58;70.77;99730.69;4226164;28;20448;-67
2023/10/15 09:28:21;;;;;;;9.07;1.70;;;;;;;8.45;70.94;99730.19;4237639;28;20701;-70
2023/10/15 09:30:48;;;;;;;10.17;1.70;;;;;;;8.55;70.62;99725.59;4227060;28;20244;-70
2023/10/15 09:33:17;;;;;;;5.30;1.40;;;;;;;8.57;70.60;99732.53;4217053;28;20406;-67
2023/10/15 09:35:44;;;;;;;5.97;2.23;;;;;;;8.79;69.75;99729.53;4241169;28;20250;-68
2023/10/15 09:38:14;;;;;;;9.63;1.60;;;;;;;8.87;69.96;99724.22;4239605;28;20286;-72
2023/10/15 09:40:44;;;;;;;6.33;1.33;;;;;;;8.82;69.12;99719.28;4232023;28;20294;-67
2023/10/15 09:43:11;;;;;;;9.83;1.90;;;;;;;8.68;70.10;99736.88;4207422;28;20232;-71
2023/10/15 09:45:41;;;;;;;7.77;1.67;;;;;;;8.61;70.53;99734.94;4229455;28;21378;-65
2023/10/15 09:48:11;;;;;;;10.03;1.90;;;;;;;8.60;70.96;99736.78;4256882;28;20231;-66
2023/10/15 09:50:41;;;;;;;8.37;1.80;;;;;;;8.75;70.90;99728.16;4233399;28;20232;-66
2023/10/15 09:53:11;;;;;;;13.47;2.00;;;;;;;8.83;71.53;99723.69;4243247;28;20442;-64
2023/10/15 09:55:40;;;;;;;206.93;104.07;;;;;;;8.78;71.42;99726.00;4242245;28;22999;-65
2023/10/15 09:58:15;;;;;;;8.70;2.13;;;;;;;8.79;71.04;99719.63;4259552;28;20236;-65
2023/10/15 10:03:47;;;;;;;11.67;1.70;;;;;;;8.94;70.47;99713.69;4260285;28;20280;-66
2023/10/15 10:06:50;;;;;;;17.93;2.23;;;;;;;8.98;70.88;99717.75;4228920;28;20239;-68
2023/10/15 10:09:54;;;;;;;9.43;2.13;;;;;;;8.85;70.98;99718.13;4237668;28;22856;-67
2023/10/15 10:12:45;;;;;;;12.83;1.87;;;;;;;8.96;70.73;99720.59;4209080;28;20236;-64
2023/10/15 10:15:30;;;;;;;11.57;1.97;;;;;;;8.90;71.20;99717.66;4229702;28;20230;-64
2023/10/15 10:17:59;;;;;;;8.70;2.07;;;;;;;8.70;71.17;99713.25;4218212;28;20240;-65
2023/10/15 10:20:35;;;;;;;11.73;2.00;;;;;;;8.67;71.54;99716.28;4224111;28;20236;-65
2023/10/15 10:23:05;;;;;;;7.30;1.90;;;;;;;8.66;71.23;99709.19;4238775;28;20231;-66
2023/10/15 10:25:42;;;;;;;9.67;2.53;;;;;;;8.61;71.16;99716.88;4257220;28;20300;-66
2023/10/15 10:28:14;;;;;;;9.40;2.13;;;;;;;8.66;72.03;99711.88;4238871;28;20276;-64
2023/10/15 10:30:55;;;;;;;9.63;1.80;;;;;;;8.76;71.48;99711.81;4228665;28;22040;-66
2023/10/15 10:33:46;;;;;;;13.10;1.70;;;;;;;8.82;71.75;99719.28;4234144;28;20302;-62
2023/10/15 10:36:18;;;;;;;14.15;3.00;;;;;;;8.81;71.83;99722.97;4282108;28;23955;-67
2023/10/15 10:38:59;;;;;;;10.80;2.20;;;;;;;8.89;70.74;99727.63;4241614;28;21739;-65
2023/10/15 10:41:39;;;;;;;14.43;2.47;;;;;;;8.89;69.99;99719.53;4277109;28;20475;-67
2023/10/15 10:44:30;;;;;;;7.30;1.70;;;;;;;8.90;69.83;99721.22;4227410;28;20442;-66
2023/10/15 10:46:57;;;;;;;10.07;1.63;;;;;;;8.96;69.79;99720.59;4247953;28;20298;-79
2023/10/15 10:49:34;;;;;;;11.50;2.20;;;;;;;8.99;70.67;99712.19;4243985;28;20229;-72
2023/10/15 10:52:17;;;;;;;9.00;2.03;;;;;;;9.00;69.81;99718.44;4242623;28;20236;-76
2023/10/15 10:54:48;;;;;;;9.37;1.67;;;;;;;8.85;70.81;99720.81;4220430;28;20227;-71
2023/10/15 10:57:21;;;;;;;10.47;1.90;;;;;;;8.85;70.32;99716.28;4218591;28;20238;-74
2023/10/15 10:59:49;;;;;;;5.37;1.90;;;;;;;8.85;70.93;99719.00;4220259;28;20628;-76
2023/10/15 11:02:16;;;;;;;8.83;1.83;;;;;;;8.71;71.77;99706.03;4223359;28;20231;-70
2023/10/15 11:04:43;;;;;;;8.10;1.97;;;;;;;8.61;71.34;99716.88;4238355;28;25241;-70
2023/10/15 11:07:11;;;;;;;11.83;2.27;;;;;;;8.57;71.67;99723.59;4239669;28;20312;-72
2023/10/15 11:09:38;;;;;;;8.77;1.70;;;;;;;8.52;72.08;99720.50;4231734;28;22359;-74
2023/10/15 11:12:12;;;;;;;10.73;2.13;;;;;;;8.49;71.37;99723.50;4205951;28;21257;-74
2023/10/15 11:14:39;;;;;;;8.00;2.00;;;;;;;8.47;72.09;99714.69;4267812;28;20234;-72
2023/10/15 11:17:08;;;;;;;8.90;1.80;;;;;;;8.43;72.28;99713.28;4247583;28;20231;-70
2023/10/15 11:19:36;;;;;;;9.70;1.80;;;;;;;8.56;71.36;99724.59;4258909;28;20918;-72
2023/10/15 11:22:03;;;;;;;15.23;2.10;;;;;;;8.60;71.28;99723.28;4246391;28;20484;-66
2023/10/15 11:24:30;;;;;;;6.43;1.80;;;;;;;8.71;71.59;99711.44;4218491;28;21114;-57
2023/10/15 11:26:59;;;;;;;8.00;1.77;;;;;;;8.68;69.85;99704.50;4213307;28;20350;-70
2023/10/15 11:29:26;;;;;;;11.03;1.90;;;;;;;8.79;70.16;99705.25;4251022;28;20309;-71
2023/10/15 11:31:58;;;;;;;8.90;1.90;;;;;;;8.86;70.46;99696.41;4223362;28;20325;-71
2023/10/15 11:34:27;;;;;;;11.93;2.07;;;;;;;8.86;70.61;99696.41;4231290;28;20243;-73
2023/10/15 11:36:56;;;;;;;7.43;2.30;;;;;;;8.88;70.68;99704.34;4234451;28;20235;-71
2023/10/15 11:39:29;;;;;;;10.60;2.27;;;;;;;8.76;71.53;99703.72;4232621;28;20242;-73
2023/10/15 11:41:56;;;;;;;11.23;2.40;;;;;;;8.91;71.14;99700.47;4211046;28;20247;-70
2023/10/15 11:44:30;;;;;;;9.23;1.83;;;;;;;8.99;68.84;99695.16;4224695;28;22378;-73
2023/10/15 11:47:08;;;;;;;8.67;1.97;;;;;;;9.10;67.19;99700.28;4225784;28;22242;-70
2023/10/15 11:49:42;;;;;;;5.90;1.40;;;;;;;9.15;67.28;99700.69;4228022;28;20235;-69
2023/10/15 11:52:14;;;;;;;12.30;2.27;;;;;;;9.09;66.42;99698.63;4226269;28;20231;-68
2023/10/15 11:54:48;;;;;;;5.50;1.70;;;;;;;9.04;66.40;99704.50;4205349;28;20275;-71
2023/10/15 11:57:25;;;;;;;7.73;1.53;;;;;;;8.98;66.53;99699.72;4226249;28;20232;-72
2023/10/15 11:59:53;;;;;;;12.73;4.63;;;;;;;9.07;66.19;99692.53;4227704;28;26208;-67
2023/10/15 12:02:27;;;;;;;6.20;1.50;;;;;;;9.10;66.47;99694.88;4234913;28;21146;-69
2023/10/15 12:05:00;;;;;;;6.60;1.50;;;;;;;9.15;65.28;99691.72;4216912;28;20726;-70
2023/10/15 12:07:29;;;;;;;6.73;1.47;;;;;;;9.11;65.61;99693.88;4210426;28;23146;-69
2023/10/15 12:09:57;;;;;;;8.97;1.40;;;;;;;9.02;65.12;99702.94;4217583;28;20266;-70
2023/10/15 12:12:24;;;;;;;8.10;2.20;;;;;;;9.01;65.71;99703.94;4224155;28;20315;-69
2023/10/15 12:14:51;;;;;;;10.30;1.73;;;;;;;9.20;65.22;99698.38;4218455;28;20227;-67
2023/10/15 12:17:17;;;;;;;41.57;16.93;;;;;;;9.11;65.98;99702.00;4208042;28;20272;-67